sensor_id;sensor_type;location;lat;lon;timestamp;P1;durP1;ratioP1;P2;durP2;ratioP2
49051;SDS011;34866;48.670;18.260;2023-05-07T00:07:13;5.80;;;3.17;;
49051;SDS011;34866;48.670;18.260;2023-05-07T00:12:40;5.93;;;2.55;;
49051;SDS011;34866;48.670;18.260;2023-05-07T00:21:43;7.53;;;3.05;;
49051;SDS011;34866;48.670;18.260;2023-05-07T00:35:07;9.48;;;2.63;;
49051;SDS011;34866;48.670;18.260;2023-05-07T00:48:26;5.03;;;2.30;;
49051;SDS011;34866;48.670;18.260;2023-05-07T00:58:16;6.47;;;2.72;;
49051;SDS011;34866;48.670;18.260;2023-05-07T01:02:05;19.90;;;2.88;;
49051;SDS011;34866;48.670;18.260;2023-05-07T01:15:42;16.65;;;2.63;;
49051;SDS011;34866;48.670;18.260;2023-05-07T01:18:19;14.93;;;2.60;;
49051;SDS011;34866;48.670;18.260;2023-05-07T01:20:45;4.95;;;2.35;;
49051;SDS011;34866;48.670;18.260;2023-05-07T01:23:16;5.63;;;2.20;;
49051;SDS011;34866;48.670;18.260;2023-05-07T01:26:29;9.18;;;2.70;;
49051;SDS011;34866;48.670;18.260;2023-05-07T01:29:03;11.88;;;2.22;;
49051;SDS011;34866;48.670;18.260;2023-05-07T01:31:51;8.95;;;2.28;;
49051;SDS011;34866;48.670;18.260;2023-05-07T01:37:34;6.93;;;2.33;;
49051;SDS011;34866;48.670;18.260;2023-05-07T01:40:43;7.00;;;2.28;;
49051;SDS011;34866;48.670;18.260;2023-05-07T01:43:34;5.50;;;2.83;;
49051;SDS011;34866;48.670;18.260;2023-05-07T01:50:09;13.25;;;2.22;;
49051;SDS011;34866;48.670;18.260;2023-05-07T01:56:45;5.05;;;2.30;;
49051;SDS011;34866;48.670;18.260;2023-05-07T01:59:37;4.93;;;2.42;;
49051;SDS011;34866;48.670;18.260;2023-05-07T02:02:28;6.28;;;2.92;;
49051;SDS011;34866;48.670;18.260;2023-05-07T02:08:42;7.80;;;2.75;;
49051;SDS011;34866;48.670;18.260;2023-05-07T02:14:43;12.65;;;3.38;;
49051;SDS011;34866;48.670;18.260;2023-05-07T02:17:09;5.63;;;2.55;;
49051;SDS011;34866;48.670;18.260;2023-05-07T02:25:36;6.18;;;2.90;;
49051;SDS011;34866;48.670;18.260;2023-05-07T02:28:41;19.23;;;3.63;;
49051;SDS011;34866;48.670;18.260;2023-05-07T02:35:35;80.88;;;4.55;;
49051;SDS011;34866;48.670;18.260;2023-05-07T02:38:07;16.90;;;3.53;;
49051;SDS011;34866;48.670;18.260;2023-05-07T02:41:22;6.13;;;2.95;;
49051;SDS011;34866;48.670;18.260;2023-05-07T02:57:36;19.50;;;2.83;;
49051;SDS011;34866;48.670;18.260;2023-05-07T03:00:50;6.47;;;3.13;;
49051;SDS011;34866;48.670;18.260;2023-05-07T03:04:31;5.82;;;3.00;;
49051;SDS011;34866;48.670;18.260;2023-05-07T03:41:09;5.47;;;2.65;;
49051;SDS011;34866;48.670;18.260;2023-05-07T03:50:22;5.05;;;2.50;;
49051;SDS011;34866;48.670;18.260;2023-05-07T03:56:35;3.90;;;1.58;;
49051;SDS011;34866;48.670;18.260;2023-05-07T03:59:40;3.90;;;1.80;;
49051;SDS011;34866;48.670;18.260;2023-05-07T04:09:42;4.45;;;2.08;;
49051;SDS011;34866;48.670;18.260;2023-05-07T04:22:29;5.85;;;2.67;;
49051;SDS011;34866;48.670;18.260;2023-05-07T04:28:26;5.22;;;2.92;;
49051;SDS011;34866;48.670;18.260;2023-05-07T04:42:02;5.07;;;2.78;;
49051;SDS011;34866;48.670;18.260;2023-05-07T04:45:34;7.93;;;2.35;;
49051;SDS011;34866;48.670;18.260;2023-05-07T04:49:19;5.30;;;2.65;;
49051;SDS011;34866;48.670;18.260;2023-05-07T05:00:00;9.88;;;3.40;;
49051;SDS011;34866;48.670;18.260;2023-05-07T05:20:03;9.55;;;3.42;;
49051;SDS011;34866;48.670;18.260;2023-05-07T06:17:52;14.68;;;8.55;;
49051;SDS011;34866;48.670;18.260;2023-05-07T06:27:21;17.75;;;8.07;;
49051;SDS011;34866;48.670;18.260;2023-05-07T06:29:57;12.07;;;6.65;;
49051;SDS011;34866;48.670;18.260;2023-05-07T06:32:24;17.42;;;7.65;;
49051;SDS011;34866;48.670;18.260;2023-05-07T06:35:11;11.70;;;6.57;;
49051;SDS011;34866;48.670;18.260;2023-05-07T06:37:38;14.38;;;6.85;;
49051;SDS011;34866;48.670;18.260;2023-05-07T06:40:07;13.57;;;6.65;;
49051;SDS011;34866;48.670;18.260;2023-05-07T06:42:52;11.43;;;6.45;;
49051;SDS011;34866;48.670;18.260;2023-05-07T06:45:21;11.23;;;6.57;;
49051;SDS011;34866;48.670;18.260;2023-05-07T06:47:49;18.35;;;6.50;;
49051;SDS011;34866;48.670;18.260;2023-05-07T06:50:16;13.77;;;6.78;;
49051;SDS011;34866;48.670;18.260;2023-05-07T06:52:42;13.25;;;6.97;;
49051;SDS011;34866;48.670;18.260;2023-05-07T06:55:08;13.23;;;6.35;;
49051;SDS011;34866;48.670;18.260;2023-05-07T06:57:34;12.05;;;6.50;;
49051;SDS011;34866;48.670;18.260;2023-05-07T06:59:59;11.90;;;6.50;;
49051;SDS011;34866;48.670;18.260;2023-05-07T07:02:25;12.93;;;6.32;;
49051;SDS011;34866;48.670;18.260;2023-05-07T07:04:51;12.30;;;6.10;;
49051;SDS011;34866;48.670;18.260;2023-05-07T07:07:17;12.63;;;6.30;;
49051;SDS011;34866;48.670;18.260;2023-05-07T07:09:42;11.93;;;5.57;;
49051;SDS011;34866;48.670;18.260;2023-05-07T07:12:08;11.35;;;6.30;;
49051;SDS011;34866;48.670;18.260;2023-05-07T07:14:34;10.45;;;5.60;;
49051;SDS011;34866;48.670;18.260;2023-05-07T07:16:59;11.65;;;6.18;;
49051;SDS011;34866;48.670;18.260;2023-05-07T07:19:25;12.15;;;6.47;;
49051;SDS011;34866;48.670;18.260;2023-05-07T07:21:51;11.73;;;5.80;;
49051;SDS011;34866;48.670;18.260;2023-05-07T07:24:17;9.77;;;4.85;;
49051;SDS011;34866;48.670;18.260;2023-05-07T07:26:46;11.90;;;5.60;;
49051;SDS011;34866;48.670;18.260;2023-05-07T07:29:11;8.45;;;5.20;;
49051;SDS011;34866;48.670;18.260;2023-05-07T07:31:37;11.65;;;5.80;;
49051;SDS011;34866;48.670;18.260;2023-05-07T07:34:03;11.70;;;5.90;;
49051;SDS011;34866;48.670;18.260;2023-05-07T07:36:29;12.30;;;5.85;;
49051;SDS011;34866;48.670;18.260;2023-05-07T07:38:55;10.20;;;4.43;;
49051;SDS011;34866;48.670;18.260;2023-05-07T07:41:20;10.52;;;5.28;;
49051;SDS011;34866;48.670;18.260;2023-05-07T07:43:46;10.00;;;5.00;;
49051;SDS011;34866;48.670;18.260;2023-05-07T07:46:12;11.48;;;5.22;;
49051;SDS011;34866;48.670;18.260;2023-05-07T07:48:38;10.02;;;5.28;;
49051;SDS011;34866;48.670;18.260;2023-05-07T07:51:03;10.25;;;5.25;;
49051;SDS011;34866;48.670;18.260;2023-05-07T07:53:29;9.65;;;5.47;;
49051;SDS011;34866;48.670;18.260;2023-05-07T07:55:55;11.32;;;5.90;;
49051;SDS011;34866;48.670;18.260;2023-05-07T07:58:21;10.27;;;5.50;;
49051;SDS011;34866;48.670;18.260;2023-05-07T08:00:47;10.18;;;4.55;;
49051;SDS011;34866;48.670;18.260;2023-05-07T08:03:13;13.43;;;4.88;;
49051;SDS011;34866;48.670;18.260;2023-05-07T08:05:41;8.13;;;4.18;;
49051;SDS011;34866;48.670;18.260;2023-05-07T08:08:07;8.05;;;4.35;;
49051;SDS011;34866;48.670;18.260;2023-05-07T08:10:33;9.73;;;4.47;;
49051;SDS011;34866;48.670;18.260;2023-05-07T08:13:00;11.75;;;4.07;;
49051;SDS011;34866;48.670;18.260;2023-05-07T08:15:26;11.02;;;4.78;;
49051;SDS011;34866;48.670;18.260;2023-05-07T08:17:51;11.20;;;4.05;;
49051;SDS011;34866;48.670;18.260;2023-05-07T08:20:17;10.05;;;4.80;;
49051;SDS011;34866;48.670;18.260;2023-05-07T08:22:43;10.55;;;4.72;;
49051;SDS011;34866;48.670;18.260;2023-05-07T08:25:08;8.48;;;4.68;;
49051;SDS011;34866;48.670;18.260;2023-05-07T08:27:34;7.72;;;4.30;;
49051;SDS011;34866;48.670;18.260;2023-05-07T08:30:00;8.75;;;4.53;;
49051;SDS011;34866;48.670;18.260;2023-05-07T08:32:26;9.40;;;4.68;;
49051;SDS011;34866;48.670;18.260;2023-05-07T08:34:52;8.27;;;4.32;;
49051;SDS011;34866;48.670;18.260;2023-05-07T08:37:20;8.15;;;4.50;;
49051;SDS011;34866;48.670;18.260;2023-05-07T08:39:45;9.35;;;4.20;;
49051;SDS011;34866;48.670;18.260;2023-05-07T08:42:11;9.60;;;4.63;;
49051;SDS011;34866;48.670;18.260;2023-05-07T08:44:41;10.50;;;4.57;;
49051;SDS011;34866;48.670;18.260;2023-05-07T08:47:12;7.38;;;3.90;;
49051;SDS011;34866;48.670;18.260;2023-05-07T08:49:37;8.50;;;4.20;;
49051;SDS011;34866;48.670;18.260;2023-05-07T08:52:06;10.00;;;3.72;;
49051;SDS011;34866;48.670;18.260;2023-05-07T08:54:36;7.47;;;3.70;;
49051;SDS011;34866;48.670;18.260;2023-05-07T08:57:02;10.85;;;4.30;;
49051;SDS011;34866;48.670;18.260;2023-05-07T08:59:48;8.25;;;4.15;;
49051;SDS011;34866;48.670;18.260;2023-05-07T09:02:14;6.22;;;3.33;;
49051;SDS011;34866;48.670;18.260;2023-05-07T09:04:41;8.60;;;4.50;;
49051;SDS011;34866;48.670;18.260;2023-05-07T09:07:08;7.70;;;3.70;;
49051;SDS011;34866;48.670;18.260;2023-05-07T09:09:35;10.35;;;4.05;;
49051;SDS011;34866;48.670;18.260;2023-05-07T09:12:01;7.55;;;3.75;;
49051;SDS011;34866;48.670;18.260;2023-05-07T09:14:28;8.52;;;3.50;;
49051;SDS011;34866;48.670;18.260;2023-05-07T09:16:56;8.50;;;3.78;;
49051;SDS011;34866;48.670;18.260;2023-05-07T09:19:25;6.60;;;3.53;;
49051;SDS011;34866;48.670;18.260;2023-05-07T09:21:57;7.75;;;4.07;;
49051;SDS011;34866;48.670;18.260;2023-05-07T09:24:28;7.38;;;3.45;;
49051;SDS011;34866;48.670;18.260;2023-05-07T09:26:59;6.78;;;3.22;;
49051;SDS011;34866;48.670;18.260;2023-05-07T09:29:26;7.97;;;3.88;;
49051;SDS011;34866;48.670;18.260;2023-05-07T09:31:54;7.88;;;3.45;;
49051;SDS011;34866;48.670;18.260;2023-05-07T09:34:20;6.07;;;3.20;;
49051;SDS011;34866;48.670;18.260;2023-05-07T09:36:45;6.82;;;3.40;;
49051;SDS011;34866;48.670;18.260;2023-05-07T09:39:11;12.82;;;3.95;;
49051;SDS011;34866;48.670;18.260;2023-05-07T09:41:47;6.60;;;3.40;;
49051;SDS011;34866;48.670;18.260;2023-05-07T09:44:14;8.30;;;3.42;;
49051;SDS011;34866;48.670;18.260;2023-05-07T09:46:42;7.28;;;3.22;;
49051;SDS011;34866;48.670;18.260;2023-05-07T09:49:13;6.15;;;3.20;;
49051;SDS011;34866;48.670;18.260;2023-05-07T09:51:51;5.95;;;2.72;;
49051;SDS011;34866;48.670;18.260;2023-05-07T09:54:18;5.68;;;2.95;;
49051;SDS011;34866;48.670;18.260;2023-05-07T09:56:44;6.32;;;3.10;;
49051;SDS011;34866;48.670;18.260;2023-05-07T09:59:12;5.13;;;2.20;;
49051;SDS011;34866;48.670;18.260;2023-05-07T10:01:40;4.90;;;2.38;;
49051;SDS011;34866;48.670;18.260;2023-05-07T10:04:08;4.30;;;2.20;;
49051;SDS011;34866;48.670;18.260;2023-05-07T10:06:35;6.25;;;2.78;;
49051;SDS011;34866;48.670;18.260;2023-05-07T10:09:02;6.25;;;2.60;;
49051;SDS011;34866;48.670;18.260;2023-05-07T10:11:32;5.35;;;2.83;;
49051;SDS011;34866;48.670;18.260;2023-05-07T10:13:59;6.82;;;2.65;;
49051;SDS011;34866;48.670;18.260;2023-05-07T10:16:27;5.80;;;2.60;;
49051;SDS011;34866;48.670;18.260;2023-05-07T10:18:58;5.32;;;3.08;;
49051;SDS011;34866;48.670;18.260;2023-05-07T10:21:24;5.53;;;2.80;;
49051;SDS011;34866;48.670;18.260;2023-05-07T10:24:02;6.38;;;2.60;;
49051;SDS011;34866;48.670;18.260;2023-05-07T10:26:42;5.38;;;2.67;;
49051;SDS011;34866;48.670;18.260;2023-05-07T10:32:19;4.97;;;2.50;;
49051;SDS011;34866;48.670;18.260;2023-05-07T10:35:19;7.25;;;2.80;;
49051;SDS011;34866;48.670;18.260;2023-05-07T10:37:48;4.45;;;2.40;;
49051;SDS011;34866;48.670;18.260;2023-05-07T10:40:15;6.35;;;2.80;;
49051;SDS011;34866;48.670;18.260;2023-05-07T10:42:58;6.97;;;2.20;;
49051;SDS011;34866;48.670;18.260;2023-05-07T10:45:25;7.07;;;2.67;;
49051;SDS011;34866;48.670;18.260;2023-05-07T10:50:42;7.45;;;2.33;;
49051;SDS011;34866;48.670;18.260;2023-05-07T10:56:24;6.25;;;2.28;;
49051;SDS011;34866;48.670;18.260;2023-05-07T10:58:50;11.30;;;2.90;;
49051;SDS011;34866;48.670;18.260;2023-05-07T11:04:22;4.85;;;2.20;;
49051;SDS011;34866;48.670;18.260;2023-05-07T11:15:09;7.20;;;2.97;;
49051;SDS011;34866;48.670;18.260;2023-05-07T11:17:54;9.82;;;2.50;;
49051;SDS011;34866;48.670;18.260;2023-05-07T11:28:47;4.40;;;2.42;;
49051;SDS011;34866;48.670;18.260;2023-05-07T11:31:14;5.13;;;2.78;;
49051;SDS011;34866;48.670;18.260;2023-05-07T11:33:46;5.03;;;2.65;;
49051;SDS011;34866;48.670;18.260;2023-05-07T11:36:13;6.35;;;3.13;;
49051;SDS011;34866;48.670;18.260;2023-05-07T11:38:45;6.47;;;2.65;;
49051;SDS011;34866;48.670;18.260;2023-05-07T11:41:11;8.00;;;2.72;;
49051;SDS011;34866;48.670;18.260;2023-05-07T11:43:37;4.40;;;2.25;;
49051;SDS011;34866;48.670;18.260;2023-05-07T11:46:08;5.25;;;2.63;;
49051;SDS011;34866;48.670;18.260;2023-05-07T11:48:38;5.43;;;2.55;;
49051;SDS011;34866;48.670;18.260;2023-05-07T11:51:25;5.53;;;2.70;;
49051;SDS011;34866;48.670;18.260;2023-05-07T11:53:53;6.63;;;3.15;;
49051;SDS011;34866;48.670;18.260;2023-05-07T11:56:19;4.85;;;2.50;;
49051;SDS011;34866;48.670;18.260;2023-05-07T11:58:45;5.82;;;2.67;;
49051;SDS011;34866;48.670;18.260;2023-05-07T12:01:15;5.63;;;2.80;;
49051;SDS011;34866;48.670;18.260;2023-05-07T12:03:42;4.88;;;2.72;;
49051;SDS011;34866;48.670;18.260;2023-05-07T12:06:09;6.35;;;3.03;;
49051;SDS011;34866;48.670;18.260;2023-05-07T12:08:40;4.80;;;2.50;;
49051;SDS011;34866;48.670;18.260;2023-05-07T12:11:09;6.28;;;2.90;;
49051;SDS011;34866;48.670;18.260;2023-05-07T12:13:38;8.82;;;3.05;;
49051;SDS011;34866;48.670;18.260;2023-05-07T12:16:06;8.32;;;2.70;;
49051;SDS011;34866;48.670;18.260;2023-05-07T12:18:33;5.32;;;2.53;;
49051;SDS011;34866;48.670;18.260;2023-05-07T12:21:00;5.25;;;2.42;;
49051;SDS011;34866;48.670;18.260;2023-05-07T12:23:26;5.18;;;2.72;;
49051;SDS011;34866;48.670;18.260;2023-05-07T12:25:52;5.68;;;3.17;;
49051;SDS011;34866;48.670;18.260;2023-05-07T12:28:18;4.85;;;2.78;;
49051;SDS011;34866;48.670;18.260;2023-05-07T12:30:47;6.35;;;3.08;;
49051;SDS011;34866;48.670;18.260;2023-05-07T12:33:17;8.45;;;3.30;;
49051;SDS011;34866;48.670;18.260;2023-05-07T12:35:46;6.80;;;2.90;;
49051;SDS011;34866;48.670;18.260;2023-05-07T12:38:13;6.47;;;2.85;;
49051;SDS011;34866;48.670;18.260;2023-05-07T12:40:45;5.80;;;2.88;;
49051;SDS011;34866;48.670;18.260;2023-05-07T12:43:20;7.18;;;3.30;;
49051;SDS011;34866;48.670;18.260;2023-05-07T12:45:51;8.77;;;3.30;;
49051;SDS011;34866;48.670;18.260;2023-05-07T12:48:19;6.10;;;3.20;;
49051;SDS011;34866;48.670;18.260;2023-05-07T12:50:55;7.60;;;3.08;;
49051;SDS011;34866;48.670;18.260;2023-05-07T12:53:23;6.10;;;2.92;;
49051;SDS011;34866;48.670;18.260;2023-05-07T12:55:51;5.90;;;2.90;;
49051;SDS011;34866;48.670;18.260;2023-05-07T13:00:55;5.60;;;3.20;;
49051;SDS011;34866;48.670;18.260;2023-05-07T13:03:35;8.93;;;4.05;;
49051;SDS011;34866;48.670;18.260;2023-05-07T13:06:03;7.53;;;3.47;;
49051;SDS011;34866;48.670;18.260;2023-05-07T13:11:01;7.47;;;3.40;;
49051;SDS011;34866;48.670;18.260;2023-05-07T13:13:29;7.22;;;3.42;;
49051;SDS011;34866;48.670;18.260;2023-05-07T13:15:58;7.38;;;3.88;;
49051;SDS011;34866;48.670;18.260;2023-05-07T13:18:25;7.03;;;3.35;;
49051;SDS011;34866;48.670;18.260;2023-05-07T13:20:52;6.88;;;3.53;;
49051;SDS011;34866;48.670;18.260;2023-05-07T13:23:19;8.43;;;3.67;;
49051;SDS011;34866;48.670;18.260;2023-05-07T13:25:46;8.27;;;3.97;;
49051;SDS011;34866;48.670;18.260;2023-05-07T13:28:12;6.00;;;2.92;;
49051;SDS011;34866;48.670;18.260;2023-05-07T13:30:41;8.45;;;3.80;;
49051;SDS011;34866;48.670;18.260;2023-05-07T13:33:07;5.53;;;2.78;;
49051;SDS011;34866;48.670;18.260;2023-05-07T13:35:34;10.18;;;3.10;;
49051;SDS011;34866;48.670;18.260;2023-05-07T13:38:03;8.80;;;3.63;;
49051;SDS011;34866;48.670;18.260;2023-05-07T13:40:29;6.40;;;3.13;;
49051;SDS011;34866;48.670;18.260;2023-05-07T13:42:57;5.60;;;3.33;;
49051;SDS011;34866;48.670;18.260;2023-05-07T13:45:23;5.93;;;3.00;;
49051;SDS011;34866;48.670;18.260;2023-05-07T13:47:51;6.22;;;3.22;;
49051;SDS011;34866;48.670;18.260;2023-05-07T13:50:17;7.95;;;2.92;;
49051;SDS011;34866;48.670;18.260;2023-05-07T13:52:43;6.68;;;3.60;;
49051;SDS011;34866;48.670;18.260;2023-05-07T13:55:15;7.32;;;3.78;;
49051;SDS011;34866;48.670;18.260;2023-05-07T13:57:46;5.53;;;2.90;;
49051;SDS011;34866;48.670;18.260;2023-05-07T14:00:12;7.03;;;2.85;;
49051;SDS011;34866;48.670;18.260;2023-05-07T14:02:39;6.93;;;3.40;;
49051;SDS011;34866;48.670;18.260;2023-05-07T14:05:05;6.30;;;3.55;;
49051;SDS011;34866;48.670;18.260;2023-05-07T14:07:32;7.32;;;2.63;;
49051;SDS011;34866;48.670;18.260;2023-05-07T14:09:57;5.63;;;3.17;;
49051;SDS011;34866;48.670;18.260;2023-05-07T14:12:23;4.53;;;2.60;;
49051;SDS011;34866;48.670;18.260;2023-05-07T14:14:49;6.07;;;3.25;;
49051;SDS011;34866;48.670;18.260;2023-05-07T14:17:16;5.97;;;2.83;;
49051;SDS011;34866;48.670;18.260;2023-05-07T14:19:42;4.88;;;2.58;;
49051;SDS011;34866;48.670;18.260;2023-05-07T14:22:14;5.85;;;2.88;;
49051;SDS011;34866;48.670;18.260;2023-05-07T14:24:40;3.90;;;2.20;;
49051;SDS011;34866;48.670;18.260;2023-05-07T14:27:06;5.00;;;2.22;;
49051;SDS011;34866;48.670;18.260;2023-05-07T14:29:32;4.75;;;2.50;;
49051;SDS011;34866;48.670;18.260;2023-05-07T14:31:57;7.10;;;2.47;;
49051;SDS011;34866;48.670;18.260;2023-05-07T14:34:23;4.95;;;2.30;;
49051;SDS011;34866;48.670;18.260;2023-05-07T14:36:49;5.93;;;2.72;;
49051;SDS011;34866;48.670;18.260;2023-05-07T14:39:15;5.63;;;2.97;;
49051;SDS011;34866;48.670;18.260;2023-05-07T14:41:40;9.07;;;2.90;;
49051;SDS011;34866;48.670;18.260;2023-05-07T14:44:06;5.93;;;2.60;;
49051;SDS011;34866;48.670;18.260;2023-05-07T14:46:32;5.15;;;2.80;;
49051;SDS011;34866;48.670;18.260;2023-05-07T14:49:01;5.28;;;2.88;;
49051;SDS011;34866;48.670;18.260;2023-05-07T14:51:27;7.00;;;3.40;;
49051;SDS011;34866;48.670;18.260;2023-05-07T14:53:53;6.85;;;2.65;;
49051;SDS011;34866;48.670;18.260;2023-05-07T14:56:19;5.32;;;2.83;;
49051;SDS011;34866;48.670;18.260;2023-05-07T14:58:46;5.90;;;2.85;;
49051;SDS011;34866;48.670;18.260;2023-05-07T15:01:13;5.25;;;2.63;;
49051;SDS011;34866;48.670;18.260;2023-05-07T15:03:40;5.80;;;3.55;;
49051;SDS011;34866;48.670;18.260;2023-05-07T15:06:06;7.03;;;2.88;;
49051;SDS011;34866;48.670;18.260;2023-05-07T15:08:34;5.82;;;2.53;;
49051;SDS011;34866;48.670;18.260;2023-05-07T15:10:59;6.20;;;2.90;;
49051;SDS011;34866;48.670;18.260;2023-05-07T15:13:25;5.75;;;2.33;;
49051;SDS011;34866;48.670;18.260;2023-05-07T15:15:52;5.78;;;2.92;;
49051;SDS011;34866;48.670;18.260;2023-05-07T15:18:18;4.90;;;2.05;;
49051;SDS011;34866;48.670;18.260;2023-05-07T15:20:44;8.65;;;2.55;;
49051;SDS011;34866;48.670;18.260;2023-05-07T15:23:14;4.78;;;2.20;;
49051;SDS011;34866;48.670;18.260;2023-05-07T15:25:40;5.00;;;2.25;;
49051;SDS011;34866;48.670;18.260;2023-05-07T15:28:06;4.88;;;2.42;;
49051;SDS011;34866;48.670;18.260;2023-05-07T15:30:31;5.88;;;2.55;;
49051;SDS011;34866;48.670;18.260;2023-05-07T15:33:01;5.93;;;2.58;;
49051;SDS011;34866;48.670;18.260;2023-05-07T15:35:27;4.68;;;2.42;;
49051;SDS011;34866;48.670;18.260;2023-05-07T15:37:53;4.43;;;2.47;;
49051;SDS011;34866;48.670;18.260;2023-05-07T15:40:22;6.28;;;3.05;;
49051;SDS011;34866;48.670;18.260;2023-05-07T15:42:47;6.07;;;3.22;;
49051;SDS011;34866;48.670;18.260;2023-05-07T15:45:13;6.28;;;2.92;;
49051;SDS011;34866;48.670;18.260;2023-05-07T15:47:39;7.45;;;3.45;;
49051;SDS011;34866;48.670;18.260;2023-05-07T15:50:05;7.35;;;3.38;;
49051;SDS011;34866;48.670;18.260;2023-05-07T15:52:32;8.43;;;4.20;;
49051;SDS011;34866;48.670;18.260;2023-05-07T15:54:58;7.38;;;4.00;;
49051;SDS011;34866;48.670;18.260;2023-05-07T15:57:23;6.45;;;3.65;;
49051;SDS011;34866;48.670;18.260;2023-05-07T15:59:53;10.38;;;4.68;;
49051;SDS011;34866;48.670;18.260;2023-05-07T16:02:26;5.85;;;3.25;;
49051;SDS011;34866;48.670;18.260;2023-05-07T16:04:52;8.18;;;4.13;;
49051;SDS011;34866;48.670;18.260;2023-05-07T16:07:18;12.13;;;6.15;;
49051;SDS011;34866;48.670;18.260;2023-05-07T16:09:44;7.30;;;4.45;;
49051;SDS011;34866;48.670;18.260;2023-05-07T16:12:10;11.32;;;4.65;;
49051;SDS011;34866;48.670;18.260;2023-05-07T16:14:56;11.93;;;5.20;;
49051;SDS011;34866;48.670;18.260;2023-05-07T16:17:23;14.02;;;5.43;;
49051;SDS011;34866;48.670;18.260;2023-05-07T16:19:52;10.18;;;5.43;;
49051;SDS011;34866;48.670;18.260;2023-05-07T16:22:17;10.70;;;5.50;;
49051;SDS011;34866;48.670;18.260;2023-05-07T16:24:43;11.02;;;4.75;;
49051;SDS011;34866;48.670;18.260;2023-05-07T16:27:10;9.85;;;4.82;;
49051;SDS011;34866;48.670;18.260;2023-05-07T16:29:36;9.05;;;5.00;;
49051;SDS011;34866;48.670;18.260;2023-05-07T16:32:01;9.80;;;4.60;;
49051;SDS011;34866;48.670;18.260;2023-05-07T16:34:27;9.05;;;4.32;;
49051;SDS011;34866;48.670;18.260;2023-05-07T16:36:53;10.10;;;4.40;;
49051;SDS011;34866;48.670;18.260;2023-05-07T16:39:19;9.68;;;4.60;;
49051;SDS011;34866;48.670;18.260;2023-05-07T16:41:44;8.32;;;4.35;;
49051;SDS011;34866;48.670;18.260;2023-05-07T16:44:13;8.30;;;4.30;;
49051;SDS011;34866;48.670;18.260;2023-05-07T16:46:39;7.63;;;3.90;;
49051;SDS011;34866;48.670;18.260;2023-05-07T16:49:04;11.02;;;4.53;;
49051;SDS011;34866;48.670;18.260;2023-05-07T16:51:32;7.80;;;4.18;;
49051;SDS011;34866;48.670;18.260;2023-05-07T16:54:04;10.23;;;5.82;;
49051;SDS011;34866;48.670;18.260;2023-05-07T16:56:31;8.50;;;4.28;;
49051;SDS011;34866;48.670;18.260;2023-05-07T16:58:57;10.68;;;4.95;;
49051;SDS011;34866;48.670;18.260;2023-05-07T17:01:24;8.68;;;5.07;;
49051;SDS011;34866;48.670;18.260;2023-05-07T17:03:49;10.10;;;4.45;;
49051;SDS011;34866;48.670;18.260;2023-05-07T17:06:15;8.95;;;4.82;;
49051;SDS011;34866;48.670;18.260;2023-05-07T17:08:41;9.80;;;4.78;;
49051;SDS011;34866;48.670;18.260;2023-05-07T17:11:07;9.45;;;4.70;;
49051;SDS011;34866;48.670;18.260;2023-05-07T17:13:33;7.97;;;4.93;;
49051;SDS011;34866;48.670;18.260;2023-05-07T17:15:58;8.52;;;3.92;;
49051;SDS011;34866;48.670;18.260;2023-05-07T17:18:24;9.93;;;4.68;;
49051;SDS011;34866;48.670;18.260;2023-05-07T17:20:50;8.10;;;4.40;;
49051;SDS011;34866;48.670;18.260;2023-05-07T17:23:16;8.18;;;4.25;;
49051;SDS011;34866;48.670;18.260;2023-05-07T17:25:43;7.50;;;3.97;;
49051;SDS011;34866;48.670;18.260;2023-05-07T17:28:12;8.23;;;4.10;;
49051;SDS011;34866;48.670;18.260;2023-05-07T17:30:38;7.88;;;4.10;;
49051;SDS011;34866;48.670;18.260;2023-05-07T17:33:04;8.15;;;4.03;;
49051;SDS011;34866;48.670;18.260;2023-05-07T17:35:30;7.43;;;3.70;;
49051;SDS011;34866;48.670;18.260;2023-05-07T17:37:57;8.05;;;4.05;;
49051;SDS011;34866;48.670;18.260;2023-05-07T17:40:26;7.93;;;3.88;;
49051;SDS011;34866;48.670;18.260;2023-05-07T17:42:53;9.05;;;4.18;;
49051;SDS011;34866;48.670;18.260;2023-05-07T17:45:21;7.22;;;3.95;;
49051;SDS011;34866;48.670;18.260;2023-05-07T17:47:47;7.80;;;3.35;;
49051;SDS011;34866;48.670;18.260;2023-05-07T17:50:13;8.50;;;4.40;;
49051;SDS011;34866;48.670;18.260;2023-05-07T17:52:39;9.10;;;3.95;;
49051;SDS011;34866;48.670;18.260;2023-05-07T17:55:06;7.90;;;3.95;;
49051;SDS011;34866;48.670;18.260;2023-05-07T17:57:32;9.43;;;4.13;;
49051;SDS011;34866;48.670;18.260;2023-05-07T18:00:02;6.47;;;3.65;;
49051;SDS011;34866;48.670;18.260;2023-05-07T18:02:31;7.50;;;3.60;;
49051;SDS011;34866;48.670;18.260;2023-05-07T18:04:58;8.20;;;4.13;;
49051;SDS011;34866;48.670;18.260;2023-05-07T18:07:24;6.60;;;3.53;;
49051;SDS011;34866;48.670;18.260;2023-05-07T18:09:49;5.63;;;3.35;;
49051;SDS011;34866;48.670;18.260;2023-05-07T18:12:15;6.07;;;3.42;;
49051;SDS011;34866;48.670;18.260;2023-05-07T18:14:41;9.68;;;3.78;;
49051;SDS011;34866;48.670;18.260;2023-05-07T18:17:07;7.88;;;3.80;;
49051;SDS011;34866;48.670;18.260;2023-05-07T18:19:34;9.88;;;3.60;;
49051;SDS011;34866;48.670;18.260;2023-05-07T18:22:01;6.63;;;3.45;;
49051;SDS011;34866;48.670;18.260;2023-05-07T18:24:27;6.05;;;2.88;;
49051;SDS011;34866;48.670;18.260;2023-05-07T18:26:53;8.85;;;3.40;;
49051;SDS011;34866;48.670;18.260;2023-05-07T18:29:19;6.25;;;3.20;;
49051;SDS011;34866;48.670;18.260;2023-05-07T18:31:44;5.82;;;2.88;;
49051;SDS011;34866;48.670;18.260;2023-05-07T18:34:10;7.68;;;3.42;;
49051;SDS011;34866;48.670;18.260;2023-05-07T18:36:36;7.70;;;3.67;;
49051;SDS011;34866;48.670;18.260;2023-05-07T18:39:05;12.07;;;3.35;;
49051;SDS011;34866;48.670;18.260;2023-05-07T18:41:31;6.72;;;3.25;;
49051;SDS011;34866;48.670;18.260;2023-05-07T18:43:56;5.95;;;3.03;;
49051;SDS011;34866;48.670;18.260;2023-05-07T18:46:22;6.40;;;2.97;;
49051;SDS011;34866;48.670;18.260;2023-05-07T18:48:48;5.65;;;2.80;;
49051;SDS011;34866;48.670;18.260;2023-05-07T18:51:13;6.32;;;3.17;;
49051;SDS011;34866;48.670;18.260;2023-05-07T18:53:39;5.82;;;2.88;;
49051;SDS011;34866;48.670;18.260;2023-05-07T18:56:05;6.85;;;3.70;;
49051;SDS011;34866;48.670;18.260;2023-05-07T18:58:32;6.35;;;3.00;;
49051;SDS011;34866;48.670;18.260;2023-05-07T19:01:00;8.75;;;3.22;;
49051;SDS011;34866;48.670;18.260;2023-05-07T19:03:26;7.88;;;3.55;;
49051;SDS011;34866;48.670;18.260;2023-05-07T19:05:52;5.88;;;3.03;;
49051;SDS011;34866;48.670;18.260;2023-05-07T19:08:18;6.72;;;3.30;;
49051;SDS011;34866;48.670;18.260;2023-05-07T19:10:43;4.63;;;2.60;;
49051;SDS011;34866;48.670;18.260;2023-05-07T19:13:10;6.45;;;2.85;;
49051;SDS011;34866;48.670;18.260;2023-05-07T19:15:36;5.60;;;3.05;;
49051;SDS011;34866;48.670;18.260;2023-05-07T19:18:01;5.40;;;2.75;;
49051;SDS011;34866;48.670;18.260;2023-05-07T19:20:27;6.05;;;3.28;;
49051;SDS011;34866;48.670;18.260;2023-05-07T19:22:53;9.32;;;3.92;;
49051;SDS011;34866;48.670;18.260;2023-05-07T19:25:19;10.77;;;2.97;;
49051;SDS011;34866;48.670;18.260;2023-05-07T19:27:45;4.93;;;2.53;;
49051;SDS011;34866;48.670;18.260;2023-05-07T19:30:12;6.20;;;3.40;;
49051;SDS011;34866;48.670;18.260;2023-05-07T19:32:37;6.13;;;2.45;;
49051;SDS011;34866;48.670;18.260;2023-05-07T19:35:03;6.72;;;3.13;;
49051;SDS011;34866;48.670;18.260;2023-05-07T19:37:29;5.07;;;2.00;;
49051;SDS011;34866;48.670;18.260;2023-05-07T19:39:56;5.70;;;2.35;;
49051;SDS011;34866;48.670;18.260;2023-05-07T19:42:22;4.97;;;2.47;;